Time;durP1;ratioP1;P1;durP2;ratioP2;P2;SDS_P1;SDS_P2;PMS_P1;PMS_P2;Temp;Humidity;BMP_temperature;BMP_pressure;BME280_temperature;BME280_humidity;BME280_pressure;Samples;Min_cycle;Max_cycle;Signal;HPM_P1;HPM_P2
2024/03/05 05:02:40;;;;;;;28.13;15.93;;;7.80;97.30;;;;;;4972622;23;20492;-86
2024/03/05 05:05:06;;;;;;;15.97;10.33;;;7.80;97.30;;;;;;4886217;29;20448;-86
2024/03/05 05:07:34;;;;;;;14.70;8.57;;;7.80;97.30;;;;;;4893546;29;20286;-87
2024/03/05 05:10:00;;;;;;;30.33;9.10;;;7.80;97.30;;;;;;4887893;29;20246;-87
2024/03/05 05:12:25;;;;;;;8.03;7.17;;;7.80;97.30;;;;;;4897973;29;20868;-89
2024/03/05 05:14:51;;;;;;;22.23;12.60;;;7.80;97.30;;;;;;4898519;29;20264;-88
2024/03/05 05:17:16;;;;;;;12.77;8.23;;;7.80;97.30;;;;;;4908645;29;20228;-87
2024/03/05 05:19:42;;;;;;;20.40;9.20;;;7.80;97.30;;;;;;4897526;29;20200;-87
2024/03/05 05:22:07;;;;;;;19.73;7.63;;;7.80;97.30;;;;;;4906654;29;20211;-87
2024/03/05 05:24:34;;;;;;;11.27;6.27;;;7.80;97.30;;;;;;4896467;29;20195;-88
2024/03/05 05:27:14;;;;;;;12.67;6.03;;;7.70;97.30;;;;;;5093923;27;20542;-62
2024/03/05 05:29:40;;;;;;;11.70;5.70;;;7.70;97.30;;;;;;5086446;28;20992;-62
2024/03/05 05:32:07;;;;;;;8.60;5.10;;;7.60;97.30;;;;;;5084069;28;20690;-62
2024/03/05 05:34:33;;;;;;;16.33;8.70;;;7.50;97.30;;;;;;5082187;28;20626;-62
2024/03/05 05:36:58;;;;;;;15.30;5.27;;;7.50;97.30;;;;;;5088071;28;20503;-62
2024/03/05 05:39:24;;;;;;;13.30;9.30;;;7.40;97.30;;;;;;5079575;28;20413;-62
2024/03/05 05:41:53;;;;;;;11.53;6.53;;;7.30;97.30;;;;;;5081902;28;20196;-62
2024/03/05 05:44:19;;;;;;;11.33;6.47;;;7.20;97.30;;;;;;5079976;28;20182;-62
2024/03/05 05:46:48;;;;;;;13.70;7.10;;;7.20;97.30;;;;;;5084328;28;20547;-62
2024/03/05 05:49:19;;;;;;;10.93;5.93;;;7.20;97.30;;;;;;5081048;28;20424;-61
2024/03/05 05:51:48;;;;;;;14.63;7.27;;;7.10;97.30;;;;;;5086554;28;20573;-62
2024/03/05 05:54:13;;;;;;;27.00;9.63;;;7.10;97.30;;;;;;5083146;28;20422;-62
2024/03/05 05:56:39;;;;;;;22.83;7.73;;;7.10;97.30;;;;;;5083354;28;20413;-62
2024/03/05 05:59:08;;;;;;;9.33;5.90;;;7.00;97.30;;;;;;5092065;28;20182;-62
2024/03/05 06:01:34;;;;;;;11.73;7.17;;;7.00;97.30;;;;;;5079556;28;21067;-62
2024/03/05 06:04:00;;;;;;;7.80;5.43;;;6.90;97.30;;;;;;5080597;28;20516;-62
2024/03/05 06:06:25;;;;;;;8.37;5.40;;;6.90;97.30;;;;;;5078171;28;20473;-62
2024/03/05 06:08:51;;;;;;;7.30;4.37;;;6.90;97.30;;;;;;5084308;28;21056;-61
2024/03/05 06:11:17;;;;;;;17.73;7.80;;;6.90;97.30;;;;;;5082071;28;20237;-61
2024/03/05 06:13:43;;;;;;;7.03;6.63;;;6.90;97.30;;;;;;5077625;28;20894;-61
2024/03/05 06:16:09;;;;;;;5.57;4.47;;;6.80;97.30;;;;;;5087057;28;20669;-61
2024/03/05 06:18:36;;;;;;;9.67;6.97;;;6.80;97.30;;;;;;5085519;28;20435;-62
2024/03/05 06:21:05;;;;;;;8.30;7.90;;;6.80;97.30;;;;;;5089747;28;20198;-61
2024/03/05 06:23:31;;;;;;;15.23;8.03;;;6.80;97.30;;;;;;5095699;28;20423;-61
2024/03/05 06:25:57;;;;;;;4.70;4.40;;;6.80;97.30;;;;;;5083196;28;20472;-61
2024/03/05 06:28:22;;;;;;;11.33;6.60;;;6.80;97.30;;;;;;5091436;28;20424;-62
2024/03/05 06:30:51;;;;;;;18.60;7.23;;;6.80;97.30;;;;;;5086584;28;20186;-61
2024/03/05 06:33:18;;;;;;;11.20;7.03;;;6.70;97.30;;;;;;5089537;28;20229;-62
2024/03/05 06:35:43;;;;;;;21.67;8.50;;;6.70;97.30;;;;;;5087119;28;20416;-61
2024/03/05 06:38:09;;;;;;;8.23;3.47;;;6.70;97.30;;;;;;5078336;28;20421;-62
2024/03/05 06:40:37;;;;;;;30.90;8.43;;;6.70;97.30;;;;;;5070816;28;20199;-61
2024/03/05 06:43:04;;;;;;;9.73;8.70;;;6.70;97.30;;;;;;5079776;28;20179;-62
2024/03/05 06:45:31;;;;;;;11.90;5.87;;;6.80;97.30;;;;;;5069441;28;20457;-62
2024/03/05 06:47:57;;;;;;;5.73;5.43;;;6.70;97.30;;;;;;5078217;28;20439;-62
2024/03/05 06:50:23;;;;;;;35.60;8.23;;;6.70;97.30;;;;;;5079550;28;20417;-61
2024/03/05 06:58:19;;;;;;;7.60;5.63;;;6.70;97.30;;;;;;5079491;28;20420;-62
2024/03/05 07:00:46;;;;;;;13.50;6.93;;;6.70;97.30;;;;;;5079202;28;20843;-62
2024/03/05 07:03:15;;;;;;;14.50;6.93;;;6.70;97.30;;;;;;5084986;28;20211;-61
2024/03/05 07:05:42;;;;;;;8.33;3.30;;;6.70;97.30;;;;;;5070254;28;20457;-62
2024/03/05 07:08:08;;;;;;;5.40;3.27;;;6.70;97.30;;;;;;5070742;28;20447;-61
2024/03/05 07:10:35;;;;;;;8.83;6.10;;;6.70;97.30;;;;;;5078457;28;20962;-62
2024/03/05 07:13:01;;;;;;;10.40;4.10;;;6.70;97.30;;;;;;5076440;28;20426;-62
2024/03/05 07:15:26;;;;;;;24.93;9.37;;;6.70;97.30;;;;;;5085702;28;20431;-61
2024/03/05 07:17:52;;;;;;;11.63;6.10;;;6.70;97.30;;;;;;5073781;28;20186;-61
2024/03/05 07:20:24;;;;;;;7.47;3.40;;;6.70;97.30;;;;;;5075281;28;20263;-62
2024/03/05 07:22:51;;;;;;;22.93;8.70;;;6.70;97.30;;;;;;5081792;28;20174;-62
2024/03/05 07:25:17;;;;;;;9.23;4.70;;;6.70;97.30;;;;;;5090583;28;20510;-62
2024/03/05 07:27:47;;;;;;;13.27;4.10;;;6.70;97.30;;;;;;5079864;28;20438;-61
2024/03/05 07:30:16;;;;;;;6.50;4.47;;;6.70;97.30;;;;;;5078735;28;20463;-62
2024/03/05 07:32:43;;;;;;;7.93;4.13;;;6.70;97.30;;;;;;5088415;28;20405;-62
2024/03/05 07:35:09;;;;;;;16.27;4.33;;;6.70;97.30;;;;;;5090709;28;20488;-61
2024/03/05 07:37:35;;;;;;;14.87;6.80;;;6.70;97.30;;;;;;5069764;28;20501;-61
2024/03/05 07:40:09;;;;;;;10.30;6.23;;;6.70;97.30;;;;;;5078441;28;20554;-62
2024/03/05 07:42:40;;;;;;;5.93;5.67;;;6.70;97.30;;;;;;5078141;28;20913;-61
2024/03/05 07:45:07;;;;;;;15.83;7.00;;;6.70;97.30;;;;;;5078273;28;20456;-61
2024/03/05 07:47:33;;;;;;;20.53;9.73;;;6.70;97.30;;;;;;5085029;28;20466;-62
2024/03/05 07:49:58;;;;;;;16.73;6.17;;;6.70;97.30;;;;;;5071636;28;20425;-61
2024/03/05 07:52:24;;;;;;;17.53;7.60;;;6.70;97.30;;;;;;5072664;28;20231;-62
2024/03/05 07:54:49;;;;;;;9.77;6.37;;;6.70;97.30;;;;;;5071142;28;20523;-61
2024/03/05 07:57:15;;;;;;;18.03;7.90;;;6.70;97.30;;;;;;5089857;28;20189;-61
2024/03/05 07:59:41;;;;;;;13.80;10.57;;;6.70;97.30;;;;;;5080141;28;20315;-61
2024/03/05 08:02:07;;;;;;;12.40;5.17;;;6.70;97.30;;;;;;5074693;28;20685;-61
2024/03/05 08:04:32;;;;;;;10.87;6.90;;;6.70;97.30;;;;;;5071703;28;20186;-62
2024/03/05 08:06:58;;;;;;;7.63;5.70;;;6.80;97.30;;;;;;5079724;28;20464;-61
2024/03/05 08:09:23;;;;;;;11.17;6.10;;;6.80;97.30;;;;;;5074252;28;20186;-61
2024/03/05 08:11:49;;;;;;;9.50;4.60;;;6.80;97.30;;;;;;5070185;28;20197;-61
2024/03/05 08:14:15;;;;;;;13.73;6.60;;;6.80;97.30;;;;;;5081519;28;20170;-62
2024/03/05 08:16:41;;;;;;;8.33;5.90;;;6.80;97.30;;;;;;5078475;28;20517;-62
2024/03/05 08:19:06;;;;;;;4.37;4.07;;;6.80;97.30;;;;;;5065667;28;20229;-61
2024/03/05 08:21:34;;;;;;;7.63;6.77;;;6.80;97.30;;;;;;5071258;28;20294;-61
2024/03/05 08:24:02;;;;;;;9.27;7.00;;;6.70;97.30;;;;;;5061401;28;20203;-61
2024/03/05 08:26:27;;;;;;;4.93;4.63;;;6.70;97.30;;;;;;5067669;28;20468;-60
2024/03/05 08:28:53;;;;;;;4.37;4.10;;;6.70;97.30;;;;;;5079303;28;20489;-61
2024/03/05 08:31:19;;;;;;;23.37;9.57;;;6.70;97.30;;;;;;5073386;28;20195;-61
2024/03/05 08:33:44;;;;;;;13.03;5.97;;;6.70;97.30;;;;;;5077390;28;20190;-61
2024/03/05 08:36:11;;;;;;;6.17;5.37;;;6.70;97.30;;;;;;5074495;28;20197;-61
2024/03/05 08:38:36;;;;;;;11.57;4.00;;;6.70;97.30;;;;;;5075255;28;20273;-61
2024/03/05 08:41:02;;;;;;;26.30;9.67;;;6.60;97.30;;;;;;5069029;28;20533;-61
2024/03/05 08:43:30;;;;;;;10.80;6.80;;;6.60;97.30;;;;;;5069329;28;20229;-62
2024/03/05 08:45:56;;;;;;;10.30;9.77;;;6.70;97.30;;;;;;5076032;28;20460;-62
2024/03/05 08:48:21;;;;;;;16.03;5.07;;;6.70;97.30;;;;;;5068979;28;20512;-62
2024/03/05 08:50:46;;;;;;;11.87;6.37;;;6.70;97.30;;;;;;5076840;28;20694;-61
2024/03/05 08:53:12;;;;;;;11.67;4.87;;;6.70;97.30;;;;;;5068599;28;20182;-61
2024/03/05 08:55:37;;;;;;;15.33;9.10;;;6.70;97.30;;;;;;5084543;28;20285;-61
2024/03/05 08:58:04;;;;;;;8.33;4.50;;;6.70;97.30;;;;;;5083637;28;20182;-62
2024/03/05 09:00:33;;;;;;;7.93;4.83;;;6.70;97.30;;;;;;5075393;28;20215;-61
2024/03/05 09:02:59;;;;;;;8.83;4.83;;;6.70;97.30;;;;;;5075429;28;20409;-61
2024/03/05 09:05:24;;;;;;;5.13;3.87;;;6.70;97.30;;;;;;5067597;28;20573;-61
2024/03/05 09:07:50;;;;;;;6.13;4.33;;;6.70;97.30;;;;;;5077502;28;20670;-61
2024/03/05 09:10:17;;;;;;;18.07;7.30;;;6.70;97.30;;;;;;5074849;28;20167;-61
2024/03/05 09:12:44;;;;;;;10.60;6.40;;;6.70;97.30;;;;;;5068017;28;20422;-61
2024/03/05 09:15:12;;;;;;;5.83;5.47;;;6.60;97.30;;;;;;5080525;28;20455;-61
2024/03/05 09:17:37;;;;;;;13.90;7.30;;;6.60;97.30;;;;;;5078755;28;20490;-61
2024/03/05 09:20:13;;;;;;;9.93;6.00;;;6.60;97.30;;;;;;5080974;28;20780;-61
2024/03/05 09:22:41;;;;;;;17.57;8.77;;;6.60;97.30;;;;;;5079725;28;20205;-62
2024/03/05 09:25:06;;;;;;;12.70;7.90;;;6.60;97.30;;;;;;5079255;28;20520;-61
2024/03/05 09:27:32;;;;;;;8.67;5.70;;;6.60;97.30;;;;;;5080227;28;20533;-61
2024/03/05 09:29:57;;;;;;;14.80;6.00;;;6.60;97.30;;;;;;5069160;28;20220;-61
2024/03/05 09:32:24;;;;;;;24.47;7.40;;;6.60;97.30;;;;;;5074473;28;20665;-61
2024/03/05 09:34:50;;;;;;;6.83;4.70;;;6.60;97.30;;;;;;5080448;28;20197;-61
2024/03/05 09:37:16;;;;;;;16.57;7.17;;;6.60;97.30;;;;;;5069279;28;20877;-61
2024/03/05 09:39:41;;;;;;;7.60;4.80;;;6.60;97.30;;;;;;5064832;28;20761;-61
2024/03/05 09:42:09;;;;;;;29.27;7.37;;;6.60;97.30;;;;;;5069126;28;20458;-61
2024/03/05 09:44:37;;;;;;;10.53;6.37;;;6.60;97.30;;;;;;5070245;28;20655;-61
2024/03/05 09:47:03;;;;;;;12.30;3.47;;;6.50;97.30;;;;;;5075145;28;21037;-61
2024/03/05 09:49:29;;;;;;;5.90;5.60;;;6.50;97.30;;;;;;5076591;28;20413;-61
2024/03/05 09:51:55;;;;;;;10.80;7.17;;;6.50;97.30;;;;;;5068965;28;20606;-61
2024/03/05 09:54:21;;;;;;;11.87;6.70;;;6.50;97.30;;;;;;5074138;28;20526;-62
2024/03/05 09:56:49;;;;;;;10.07;6.83;;;6.60;97.30;;;;;;5067791;28;20952;-61
2024/03/05 09:59:16;;;;;;;6.47;4.83;;;6.50;97.30;;;;;;5086910;28;20189;-61
2024/03/05 10:01:45;;;;;;;5.13;4.83;;;6.50;97.30;;;;;;5087794;28;20531;-61
2024/03/05 10:04:15;;;;;;;10.27;6.77;;;6.50;97.30;;;;;;5067924;28;20949;-61
2024/03/05 10:06:50;;;;;;;5.07;4.17;;;6.40;97.30;;;;;;5074769;28;20479;-61
2024/03/05 10:09:18;;;;;;;11.73;6.33;;;6.50;97.30;;;;;;5063744;28;20432;-61
2024/03/05 10:11:45;;;;;;;8.63;3.80;;;6.50;97.30;;;;;;5085054;28;21004;-61
2024/03/05 10:14:11;;;;;;;6.70;4.47;;;6.50;97.30;;;;;;5082217;28;20531;-61
2024/03/05 10:16:40;;;;;;;7.23;6.53;;;6.50;97.30;;;;;;5075802;28;20943;-61
2024/03/05 10:19:13;;;;;;;11.70;8.60;;;6.50;97.30;;;;;;5071666;28;20452;-61
2024/03/05 10:21:39;;;;;;;12.80;8.63;;;6.50;97.30;;;;;;5079804;28;20441;-61
2024/03/05 10:24:07;;;;;;;8.37;7.50;;;6.50;97.30;;;;;;5070985;28;20470;-61
2024/03/05 10:26:34;;;;;;;7.80;6.70;;;6.50;97.30;;;;;;5078193;28;20684;-61
2024/03/05 10:29:08;;;;;;;19.83;6.70;;;6.50;97.30;;;;;;5081866;28;20944;-61
2024/03/05 10:31:35;;;;;;;18.90;7.63;;;6.60;97.30;;;;;;5082969;28;20962;-61
2024/03/05 10:34:03;;;;;;;10.90;7.97;;;6.60;97.30;;;;;;5089161;28;20428;-61
2024/03/05 10:36:30;;;;;;;7.50;6.10;;;6.60;97.30;;;;;;5081840;28;20526;-61
2024/03/05 10:38:56;;;;;;;12.43;6.53;;;6.60;97.30;;;;;;5074226;28;20546;-61
2024/03/05 10:41:23;;;;;;;14.40;7.87;;;6.60;97.30;;;;;;5083025;28;20471;-61
2024/03/05 10:43:52;;;;;;;14.70;6.47;;;6.60;97.30;;;;;;5073017;28;20800;-62
2024/03/05 10:46:19;;;;;;;11.07;5.70;;;6.70;97.30;;;;;;5091354;28;20455;-61
2024/03/05 10:48:47;;;;;;;22.83;10.13;;;6.70;97.30;;;;;;5074535;28;20414;-61
2024/03/05 10:51:15;;;;;;;9.27;6.37;;;6.70;97.30;;;;;;5069586;28;20480;-61
2024/03/05 10:53:41;;;;;;;12.03;7.67;;;6.70;97.30;;;;;;5069224;28;20405;-61
2024/03/05 10:56:06;;;;;;;12.53;6.53;;;6.60;97.30;;;;;;5079555;28;20421;-61
2024/03/05 11:01:09;;;;;;;13.97;6.07;;;6.60;97.30;;;;;;5072286;28;20222;-61
2024/03/05 11:03:39;;;;;;;8.83;5.73;;;6.60;97.30;;;;;;5069389;28;20417;-61
2024/03/05 11:06:06;;;;;;;7.17;5.47;;;6.60;97.30;;;;;;5083978;28;20476;-61
2024/03/05 11:08:35;;;;;;;13.30;5.17;;;6.60;97.30;;;;;;5070014;28;21058;-61
2024/03/05 11:11:06;;;;;;;6.77;6.33;;;6.60;97.30;;;;;;5068821;28;20437;-61
2024/03/05 11:13:33;;;;;;;5.17;4.10;;;6.60;97.30;;;;;;5084149;28;20947;-61
2024/03/05 11:16:03;;;;;;;7.73;5.00;;;6.50;97.30;;;;;;5071953;28;20425;-61
2024/03/05 11:18:37;;;;;;;10.93;6.53;;;6.50;97.30;;;;;;5056470;22;20493;-85
2024/03/05 11:21:31;;;;;;;;;;;;;;;;;;;;;
2024/03/05 11:24:06;;;;;;;6.60;6.20;;;6.50;97.30;;;;;;5022810;28;20411;-85
2024/03/05 11:29:17;;;;;;;7.60;3.77;;;6.50;97.30;;;;;;5019126;22;20495;-67
2024/03/05 11:31:50;;;;;;;9.20;3.60;;;6.40;97.30;;;;;;5007567;28;20547;-67
2024/03/05 11:34:17;;;;;;;15.60;5.23;;;6.40;97.30;;;;;;5010871;28;20423;-67
2024/03/05 11:36:44;;;;;;;9.87;6.10;;;6.50;97.30;;;;;;5025141;28;20419;-67
2024/03/05 11:39:14;;;;;;;8.90;5.57;;;6.40;97.30;;;;;;5006004;28;20427;-67
2024/03/05 11:41:45;;;;;;;9.50;5.80;;;6.40;97.30;;;;;;5015074;28;20547;-66
2024/03/05 11:44:13;;;;;;;8.83;5.50;;;6.40;97.30;;;;;;5017395;28;20440;-65
2024/03/05 11:46:39;;;;;;;8.27;4.00;;;6.40;97.30;;;;;;5025733;28;20505;-66
2024/03/05 11:49:05;;;;;;;11.47;7.00;;;6.40;97.30;;;;;;5020485;28;20426;-65
2024/03/05 11:51:31;;;;;;;4.90;4.60;;;6.40;97.30;;;;;;5021895;28;20439;-66
2024/03/05 11:53:56;;;;;;;12.87;7.90;;;6.40;97.30;;;;;;5028469;28;20526;-66
2024/03/05 11:56:22;;;;;;;9.20;6.87;;;6.40;97.30;;;;;;5015997;28;20276;-66
2024/03/05 11:58:54;;;;;;;8.77;5.23;;;6.40;97.30;;;;;;5018378;28;20657;-65
2024/03/05 12:01:20;;;;;;;3.70;3.50;;;6.40;97.30;;;;;;5028464;28;20204;-66
2024/03/05 12:03:49;;;;;;;4.80;4.50;;;6.40;97.30;;;;;;5029775;28;20506;-65
2024/03/05 12:06:19;;;;;;;14.57;7.23;;;6.40;97.30;;;;;;5000534;28;20921;-65
2024/03/05 12:08:44;;;;;;;17.30;7.10;;;6.40;97.30;;;;;;5010342;28;20420;-65
2024/03/05 12:11:11;;;;;;;11.90;7.97;;;6.40;97.30;;;;;;5012517;28;20538;-65
2024/03/05 12:13:36;;;;;;;5.73;5.03;;;6.40;97.30;;;;;;5028485;28;20645;-66
2024/03/05 12:16:13;;;;;;;9.73;5.57;;;6.40;97.30;;;;;;5004760;28;20425;-65
2024/03/05 12:18:40;;;;;;;10.07;6.43;;;6.40;97.30;;;;;;5009780;28;20271;-66
2024/03/05 12:21:06;;;;;;;9.17;5.87;;;6.50;97.30;;;;;;5006901;28;20527;-65
2024/03/05 12:23:35;;;;;;;20.53;6.50;;;6.50;97.30;;;;;;5007335;28;21008;-65
2024/03/05 12:26:02;;;;;;;7.70;5.70;;;6.40;97.30;;;;;;5009250;28;20989;-65
2024/03/05 12:28:27;;;;;;;7.30;4.83;;;6.40;97.30;;;;;;5004179;28;20451;-65
2024/03/05 12:30:54;;;;;;;16.50;6.67;;;6.40;97.30;;;;;;5009675;28;20447;-65
2024/03/05 12:33:22;;;;;;;19.20;6.17;;;6.40;97.30;;;;;;5013284;28;20212;-65
2024/03/05 12:35:49;;;;;;;6.83;5.03;;;6.40;97.30;;;;;;5007322;28;20471;-65
2024/03/05 12:38:15;;;;;;;4.57;4.03;;;6.40;97.30;;;;;;5010136;28;20458;-65
2024/03/05 12:40:43;;;;;;;10.23;5.30;;;6.40;97.30;;;;;;5010876;28;20443;-65
2024/03/05 12:43:10;;;;;;;9.60;4.80;;;6.40;97.30;;;;;;5010143;28;20420;-65
2024/03/05 12:45:36;;;;;;;10.17;6.60;;;6.50;97.30;;;;;;5009089;28;20471;-65
2024/03/05 12:48:05;;;;;;;7.90;5.67;;;6.50;97.30;;;;;;5010389;28;20494;-66
2024/03/05 12:50:31;;;;;;;7.93;6.20;;;6.50;97.30;;;;;;5003982;28;20535;-64
2024/03/05 12:53:04;;;;;;;10.90;4.90;;;6.50;97.30;;;;;;5009009;28;20519;-65
2024/03/05 12:55:30;;;;;;;7.70;4.70;;;6.50;97.30;;;;;;5003558;28;20435;-65
2024/03/05 12:58:09;;;;;;;9.50;5.03;;;6.50;97.30;;;;;;5007437;28;20435;-65
2024/03/05 13:00:38;;;;;;;10.50;5.07;;;6.50;97.30;;;;;;5002122;28;20824;-65
2024/03/05 13:03:09;;;;;;;5.90;4.60;;;6.60;97.30;;;;;;5008409;28;20478;-65
2024/03/05 13:05:38;;;;;;;9.20;5.50;;;6.60;97.30;;;;;;5006537;28;20471;-65
2024/03/05 13:08:05;;;;;;;9.83;4.33;;;6.60;97.30;;;;;;5009922;28;20478;-65
2024/03/05 13:10:32;;;;;;;6.53;5.03;;;6.60;97.30;;;;;;5009616;28;20863;-65
2024/03/05 13:12:58;;;;;;;9.70;6.63;;;6.60;97.30;;;;;;5009435;28;20924;-65
2024/03/05 13:15:23;;;;;;;13.83;7.10;;;6.70;97.30;;;;;;5009211;28;20454;-65
2024/03/05 13:17:53;;;;;;;16.90;4.97;;;6.70;97.30;;;;;;5008518;28;20935;-65
2024/03/05 13:20:19;;;;;;;6.23;5.90;;;6.70;97.30;;;;;;5009809;28;20188;-65
2024/03/05 13:22:49;;;;;;;10.77;5.50;;;6.60;97.30;;;;;;5007247;28;20854;-65
2024/03/05 13:25:18;;;;;;;13.07;7.77;;;6.50;97.30;;;;;;5010214;28;20431;-65
2024/03/05 13:27:53;;;;;;;7.33;5.30;;;6.50;97.30;;;;;;5009095;28;20497;-65
2024/03/05 13:30:20;;;;;;;13.57;7.37;;;6.50;97.30;;;;;;5005262;28;20457;-65
2024/03/05 13:32:48;;;;;;;7.83;5.57;;;6.50;97.30;;;;;;5010575;28;20481;-65
2024/03/05 13:35:17;;;;;;;5.43;4.67;;;6.50;97.30;;;;;;5005588;28;20412;-65
2024/03/05 13:37:43;;;;;;;17.90;7.20;;;6.50;97.30;;;;;;5005163;28;20705;-65
2024/03/05 13:40:11;;;;;;;12.97;8.67;;;6.50;97.30;;;;;;5007877;28;20935;-65
2024/03/05 13:42:37;;;;;;;3.43;3.27;;;6.40;97.30;;;;;;5007753;28;20986;-65
2024/03/05 13:45:15;;;;;;;7.23;5.20;;;6.50;97.30;;;;;;5009817;28;20424;-65
2024/03/05 13:47:42;;;;;;;9.40;5.20;;;6.50;97.30;;;;;;5008524;28;20489;-65
2024/03/05 13:50:10;;;;;;;8.47;6.70;;;6.40;97.30;;;;;;5013371;28;20408;-65
2024/03/05 13:52:38;;;;;;;4.97;4.53;;;6.40;97.30;;;;;;5012501;28;20422;-65
2024/03/05 13:55:04;;;;;;;6.77;4.40;;;6.30;97.30;;;;;;5012331;28;20431;-65
2024/03/05 13:57:30;;;;;;;10.97;4.60;;;6.30;97.30;;;;;;5012132;28;20416;-65
2024/03/05 13:59:55;;;;;;;15.63;6.30;;;6.30;97.30;;;;;;5012976;28;20916;-65
2024/03/05 14:02:21;;;;;;;13.20;6.50;;;6.30;97.30;;;;;;5012192;28;20201;-65
2024/03/05 14:04:46;;;;;;;23.67;5.73;;;6.30;97.30;;;;;;5010922;28;20176;-64
2024/03/05 14:07:15;;;;;;;6.10;5.83;;;6.20;97.30;;;;;;5014008;28;20596;-65
2024/03/05 14:09:43;;;;;;;9.53;6.17;;;6.20;97.30;;;;;;5012702;28;20181;-65
2024/03/05 14:12:10;;;;;;;12.13;5.77;;;6.20;97.30;;;;;;5011464;28;20455;-65
2024/03/05 14:14:35;;;;;;;12.10;6.30;;;6.20;97.30;;;;;;5011273;28;20814;-65
2024/03/05 14:17:01;;;;;;;5.70;3.27;;;6.20;97.30;;;;;;5010709;28;20444;-65
2024/03/05 14:19:27;;;;;;;12.53;5.87;;;6.20;97.30;;;;;;5012182;28;20533;-65
2024/03/05 14:21:52;;;;;;;5.47;4.80;;;6.20;97.30;;;;;;5011825;28;20616;-65
2024/03/05 14:24:18;;;;;;;7.80;6.77;;;6.20;97.30;;;;;;5012466;28;20196;-65
2024/03/05 14:26:44;;;;;;;6.40;4.23;;;6.20;97.30;;;;;;5010172;28;20234;-65
2024/03/05 14:29:09;;;;;;;9.17;6.20;;;6.10;97.30;;;;;;5010200;28;20435;-65
2024/03/05 14:31:35;;;;;;;14.73;6.40;;;6.10;97.30;;;;;;5011896;28;20375;-65
2024/03/05 14:34:00;;;;;;;8.83;4.87;;;6.20;97.30;;;;;;5010427;28;20185;-65
2024/03/05 14:36:26;;;;;;;5.70;5.20;;;6.20;97.30;;;;;;5010764;28;20273;-65
2024/03/05 14:38:52;;;;;;;6.37;4.20;;;6.20;97.30;;;;;;5010071;28;20539;-65
2024/03/05 14:41:17;;;;;;;6.13;4.53;;;6.10;97.30;;;;;;5011655;28;20205;-65
2024/03/05 14:43:43;;;;;;;15.53;8.00;;;6.20;97.30;;;;;;5010342;28;20184;-65
2024/03/05 14:46:08;;;;;;;9.40;5.00;;;6.20;97.30;;;;;;5011176;28;20213;-65
2024/03/05 14:48:34;;;;;;;7.40;4.07;;;6.20;97.30;;;;;;5008345;28;20282;-65
2024/03/05 14:51:00;;;;;;;6.50;5.27;;;6.30;97.30;;;;;;5010739;28;20199;-65
2024/03/05 14:53:27;;;;;;;4.90;3.67;;;6.30;97.30;;;;;;5011041;28;20412;-65
2024/03/05 14:55:53;;;;;;;14.93;6.20;;;6.40;97.30;;;;;;5010002;28;20503;-65
2024/03/05 14:58:18;;;;;;;6.83;5.10;;;6.30;97.30;;;;;;5010651;28;20534;-65
2024/03/05 15:00:44;;;;;;;4.47;3.63;;;6.40;97.30;;;;;;5011039;28;20522;-65
2024/03/05 15:03:10;;;;;;;5.63;3.80;;;6.40;97.30;;;;;;5010824;28;20633;-65
2024/03/05 15:05:35;;;;;;;5.17;4.00;;;6.40;97.30;;;;;;5010764;28;20559;-65
2024/03/05 15:08:01;;;;;;;6.30;3.63;;;6.40;97.30;;;;;;5009897;28;20177;-65
2024/03/05 15:10:28;;;;;;;11.23;3.20;;;6.40;97.30;;;;;;5014589;28;20184;-65
2024/03/05 15:12:54;;;;;;;7.60;5.87;;;6.30;97.30;;;;;;5016144;28;20629;-65
2024/03/05 15:15:22;;;;;;;5.97;3.30;;;6.30;97.30;;;;;;5026368;28;20428;-65
2024/03/05 15:17:50;;;;;;;4.33;3.97;;;6.20;97.30;;;;;;5017600;28;20431;-65
2024/03/05 15:20:17;;;;;;;4.70;4.40;;;6.20;97.30;;;;;;5020427;28;20958;-65
2024/03/05 15:22:48;;;;;;;6.53;6.17;;;6.20;97.30;;;;;;5022375;28;20411;-65
2024/03/05 15:25:15;;;;;;;20.33;6.33;;;6.30;97.30;;;;;;5012531;28;20415;-65
2024/03/05 15:27:41;;;;;;;11.03;5.90;;;6.30;97.30;;;;;;5008779;28;20550;-65
2024/03/05 15:30:14;;;;;;;8.30;4.80;;;6.30;97.30;;;;;;5008924;28;20455;-65
2024/03/05 15:32:50;;;;;;;11.17;3.80;;;6.30;97.30;;;;;;5009115;28;20424;-62
2024/03/05 15:35:18;;;;;;;16.17;4.63;;;6.30;97.30;;;;;;5017238;28;20453;-65
2024/03/05 15:37:45;;;;;;;4.73;4.47;;;6.20;97.30;;;;;;5021820;28;20458;-65
2024/03/05 15:40:15;;;;;;;5.03;3.00;;;6.20;97.30;;;;;;5020982;28;20419;-65
2024/03/05 15:42:52;;;;;;;4.73;3.80;;;6.10;97.30;;;;;;5016584;28;20416;-65
2024/03/05 15:45:20;;;;;;;6.90;3.87;;;6.10;97.30;;;;;;5011837;28;20912;-65
2024/03/05 15:47:46;;;;;;;8.20;5.33;;;6.10;97.30;;;;;;5015809;28;20479;-65
2024/03/05 15:50:17;;;;;;;6.90;4.17;;;6.10;97.30;;;;;;5010424;28;20428;-65
2024/03/05 15:52:49;;;;;;;5.97;5.40;;;6.10;97.30;;;;;;5009926;28;20424;-64
2024/03/05 15:55:17;;;;;;;7.17;3.93;;;6.10;97.30;;;;;;5017612;28;20446;-65
2024/03/05 16:00:35;;;;;;;9.93;4.40;;;6.20;97.30;;;;;;5017553;28;20535;-65
2024/03/05 16:03:04;;;;;;;8.10;5.03;;;6.20;97.30;;;;;;5015128;28;20432;-65
2024/03/05 16:05:31;;;;;;;8.50;5.07;;;6.20;97.30;;;;;;5011413;28;20419;-65
2024/03/05 16:07:59;;;;;;;16.43;5.17;;;6.20;97.30;;;;;;5017473;28;20432;-65
2024/03/05 16:10:28;;;;;;;33.00;6.10;;;6.20;97.30;;;;;;5007262;28;20458;-65
2024/03/05 16:12:54;;;;;;;8.50;5.60;;;6.20;97.30;;;;;;5009101;28;20419;-65
2024/03/05 16:15:20;;;;;;;5.60;3.90;;;6.20;97.30;;;;;;5009403;28;20927;-65
2024/03/05 16:17:46;;;;;;;8.67;4.70;;;6.20;97.30;;;;;;5014551;28;20419;-65
2024/03/05 16:20:19;;;;;;;3.30;3.10;;;6.20;97.30;;;;;;5011229;28;20470;-65
2024/03/05 16:22:46;;;;;;;9.33;5.30;;;6.20;97.30;;;;;;5016912;28;20670;-63
2024/03/05 16:25:12;;;;;;;12.80;4.90;;;6.20;97.30;;;;;;5016500;28;20518;-66
2024/03/05 16:27:38;;;;;;;2.97;2.77;;;6.10;97.30;;;;;;5020408;28;20608;-65
2024/03/05 16:30:06;;;;;;;5.40;4.03;;;6.10;97.30;;;;;;5015347;28;20903;-65
2024/03/05 16:32:33;;;;;;;7.60;5.57;;;6.10;97.30;;;;;;5015312;28;20432;-65
2024/03/05 16:34:59;;;;;;;4.03;3.40;;;6.10;97.30;;;;;;5009526;28;20416;-65
2024/03/05 16:37:24;;;;;;;6.77;4.97;;;6.10;97.30;;;;;;5005953;28;20946;-65
2024/03/05 16:39:50;;;;;;;8.70;6.60;;;6.10;97.30;;;;;;5022141;28;20263;-65
2024/03/05 16:42:16;;;;;;;4.50;4.23;;;6.10;97.30;;;;;;5018793;28;20278;-65
2024/03/05 16:44:41;;;;;;;4.07;3.87;;;6.10;97.30;;;;;;5021198;28;20177;-65
2024/03/05 16:47:07;;;;;;;9.17;4.60;;;6.10;97.30;;;;;;5007927;28;20677;-65
2024/03/05 16:49:33;;;;;;;12.77;7.27;;;6.10;97.30;;;;;;5009017;28;20184;-65
2024/03/05 16:51:59;;;;;;;5.47;3.87;;;6.10;97.30;;;;;;5016084;28;20560;-65
2024/03/05 16:54:25;;;;;;;7.70;4.17;;;6.10;97.30;;;;;;5015784;28;20416;-65
2024/03/05 16:56:52;;;;;;;3.47;3.20;;;6.10;97.30;;;;;;5013142;28;20267;-65
2024/03/05 16:59:17;;;;;;;3.37;3.17;;;6.10;97.30;;;;;;5015726;28;20216;-67
2024/03/05 17:01:43;;;;;;;7.27;2.30;;;6.10;97.30;;;;;;5009136;28;20443;-65
2024/03/05 17:04:14;;;;;;;13.83;4.40;;;6.10;97.30;;;;;;5015776;28;20259;-65
2024/03/05 17:06:42;;;;;;;4.90;4.60;;;6.10;97.30;;;;;;5012904;28;20204;-65
2024/03/05 17:09:09;;;;;;;5.50;3.63;;;6.00;97.30;;;;;;5018365;28;20416;-65
2024/03/05 17:11:34;;;;;;;5.10;3.77;;;6.00;97.30;;;;;;5007241;28;20436;-65
2024/03/05 17:14:04;;;;;;;20.47;8.90;;;5.90;97.30;;;;;;5008456;28;20423;-65
2024/03/05 17:16:33;;;;;;;3.63;3.43;;;5.90;97.30;;;;;;5006356;28;20185;-65
2024/03/05 17:18:58;;;;;;;4.83;3.90;;;5.90;97.30;;;;;;5008851;28;20503;-65
2024/03/05 17:21:24;;;;;;;13.03;5.60;;;5.80;97.30;;;;;;5016678;28;20586;-65
2024/03/05 17:23:51;;;;;;;17.53;6.03;;;5.90;97.30;;;;;;5022029;28;20259;-65
2024/03/05 17:26:16;;;;;;;8.20;5.20;;;5.90;97.30;;;;;;5017298;28;20383;-65
2024/03/05 17:28:42;;;;;;;6.40;6.10;;;5.90;97.30;;;;;;5012478;28;20463;-67
2024/03/05 17:31:08;;;;;;;10.23;6.50;;;5.80;97.30;;;;;;5007111;28;20696;-67
2024/03/05 17:33:34;;;;;;;18.33;6.70;;;5.80;97.30;;;;;;5013691;28;20466;-65
2024/03/05 17:36:01;;;;;;;9.00;3.73;;;5.90;97.30;;;;;;5008565;28;20424;-65
2024/03/05 17:38:27;;;;;;;7.60;5.70;;;5.80;97.30;;;;;;5004434;28;20439;-67
2024/03/05 17:40:53;;;;;;;6.50;3.80;;;5.80;97.30;;;;;;5014881;28;20436;-66
2024/03/05 17:43:19;;;;;;;13.97;8.40;;;5.80;97.30;;;;;;5014854;28;20636;-66
2024/03/05 17:45:46;;;;;;;7.57;4.57;;;5.90;97.30;;;;;;5011191;28;20251;-66
2024/03/05 17:48:12;;;;;;;5.90;4.53;;;5.90;97.30;;;;;;5017398;28;20447;-64
2024/03/05 17:50:38;;;;;;;11.40;6.67;;;5.90;97.30;;;;;;5006814;28;20447;-65
2024/03/05 17:53:04;;;;;;;5.40;5.10;;;5.90;97.30;;;;;;5007089;28;20424;-65
2024/03/05 17:55:30;;;;;;;6.17;5.83;;;5.90;97.30;;;;;;5023136;28;20256;-65
2024/03/05 17:57:56;;;;;;;5.90;4.93;;;5.90;97.30;;;;;;5011538;28;20730;-65
2024/03/05 18:02:47;;;;;;;14.47;6.13;;;5.90;97.30;;;;;;5020093;28;20172;-65
2024/03/05 18:05:13;;;;;;;14.63;6.10;;;5.90;97.30;;;;;;5015460;28;20172;-65
2024/03/05 18:07:39;;;;;;;4.23;3.47;;;5.90;97.30;;;;;;5017179;28;20958;-66
2024/03/05 18:10:05;;;;;;;7.90;3.87;;;5.90;97.30;;;;;;5011203;28;20181;-65